Time;durP1;ratioP1;P1;durP2;ratioP2;P2;SDS_P1;SDS_P2;PMS_P1;PMS_P2;Temp;Humidity;BMP_temperature;BMP_pressure;BME280_temperature;BME280_humidity;BME280_pressure;Samples;Min_cycle;Max_cycle;Signal;HPM_P1;HPM_P2
2023/05/18 00:00:23;;;;;;;3.47;3.20;;;;;;;9.23;100.00;96855.59;5070454;27;105538;-60
2023/05/18 00:02:50;;;;;;;3.37;2.83;;;;;;;9.25;100.00;96853.50;5068069;27;105500;-60
2023/05/18 00:05:18;;;;;;;3.33;2.87;;;;;;;9.23;100.00;96857.44;5070085;27;102158;-60
2023/05/18 00:07:46;;;;;;;3.20;2.90;;;;;;;9.18;100.00;96847.53;5065202;27;104723;-60
2023/05/18 00:10:13;;;;;;;3.93;2.77;;;;;;;9.22;100.00;96848.66;5051178;27;101813;-61
2023/05/18 00:12:40;;;;;;;2.93;2.73;;;;;;;9.21;100.00;96848.91;5049966;27;105314;-61
2023/05/18 00:15:22;;;;;;;3.27;2.93;;;;;;;9.20;100.00;96848.09;5062172;27;103829;-61
2023/05/18 00:17:52;;;;;;;3.50;3.20;;;;;;;9.23;100.00;96834.38;5062228;27;101963;-60
2023/05/18 00:20:20;;;;;;;3.57;3.10;;;;;;;9.24;100.00;96835.16;5049706;27;105753;-60
2023/05/18 00:22:49;;;;;;;3.60;3.07;;;;;;;9.19;100.00;96830.56;5049085;27;105876;-60
2023/05/18 00:25:29;;;;;;;3.40;3.10;;;;;;;9.23;100.00;96833.56;5060363;27;101933;-60
2023/05/18 00:27:56;;;;;;;9.67;3.53;;;;;;;9.27;100.00;96832.84;5069053;27;105034;-60
2023/05/18 00:30:24;;;;;;;3.47;3.17;;;;;;;9.26;100.00;96828.59;5073079;27;104984;-60
2023/05/18 00:32:51;;;;;;;4.70;3.80;;;;;;;9.20;100.00;96839.31;5068371;27;105238;-60
2023/05/18 00:35:31;;;;;;;3.70;3.40;;;;;;;9.16;100.00;96835.53;5058136;27;106259;-60
2023/05/18 00:37:59;;;;;;;4.43;3.50;;;;;;;9.18;100.00;96838.75;5058673;27;102030;-60
2023/05/18 00:40:28;;;;;;;3.50;3.20;;;;;;;9.17;100.00;96832.63;5070134;27;105197;-60
2023/05/18 00:42:55;;;;;;;4.00;3.07;;;;;;;9.14;100.00;96834.91;5068813;27;105341;-60
2023/05/18 00:48:45;;;;;;;3.57;3.10;;;;;;;9.19;100.00;96838.53;5064270;27;105284;-60
2023/05/18 00:51:12;;;;;;;3.53;3.23;;;;;;;9.21;100.00;96841.72;5069137;27;105126;-60
2023/05/18 00:53:44;;;;;;;3.50;3.20;;;;;;;9.22;100.00;96839.91;5058585;27;102046;-60
2023/05/18 00:56:12;;;;;;;4.43;3.70;;;;;;;9.23;100.00;96839.69;5049765;27;103954;-60
2023/05/18 00:58:40;;;;;;;4.30;3.17;;;;;;;9.22;100.00;96831.94;5063314;27;102202;-60
2023/05/18 01:01:08;;;;;;;3.47;3.17;;;;;;;9.21;100.00;96831.13;5070775;27;102799;-60
2023/05/18 01:03:55;;;;;;;3.43;3.13;;;;;;;9.17;100.00;96829.16;5056368;27;102802;-60
2023/05/18 01:06:24;;;;;;;4.83;3.13;;;;;;;9.16;100.00;96820.38;5067986;27;101783;-60
2023/05/18 01:08:54;;;;;;;5.80;3.50;;;;;;;9.16;100.00;96827.56;5053120;27;104959;-60
2023/05/18 01:11:26;;;;;;;4.40;3.40;;;;;;;9.19;100.00;96830.56;5050146;27;105396;-60
2023/05/18 01:14:14;;;;;;;4.17;3.10;;;;;;;9.21;100.00;96833.78;5054234;27;101693;-60
2023/05/18 01:16:47;;;;;;;3.83;3.30;;;;;;;9.15;100.00;96828.56;5055775;27;105568;-60
2023/05/18 01:19:36;;;;;;;4.70;3.43;;;;;;;9.13;100.00;96826.19;5052965;27;102047;-60
2023/05/18 01:22:13;;;;;;;4.90;3.83;;;;;;;9.17;100.00;96831.81;5068840;27;105365;-60
2023/05/18 01:24:48;;;;;;;3.93;3.23;;;;;;;9.17;100.00;96834.47;5054704;27;103154;-60
2023/05/18 01:27:18;;;;;;;4.00;3.70;;;;;;;9.19;100.00;96838.53;5052690;27;101727;-60
2023/05/18 01:29:46;;;;;;;7.53;4.30;;;;;;;9.20;100.00;96839.31;5052279;27;105802;-60
2023/05/18 01:32:18;;;;;;;4.73;3.57;;;;;;;9.20;100.00;96832.16;5053744;27;104424;-60
2023/05/18 01:34:45;;;;;;;5.23;4.40;;;;;;;9.20;100.00;96834.81;5063430;27;102029;-60
2023/05/18 01:37:12;;;;;;;4.77;4.27;;;;;;;9.17;100.00;96824.66;5054038;27;102288;-60
2023/05/18 01:39:39;;;;;;;4.40;4.00;;;;;;;9.17;100.00;96831.81;5055264;27;104070;-60
2023/05/18 01:42:12;;;;;;;5.77;4.83;;;;;;;9.14;100.00;96827.78;5053135;27;104840;-60
2023/05/18 01:45:13;;;;;;;5.70;4.80;;;;;;;9.06;100.00;96825.47;5053195;27;103049;-60
2023/05/18 01:47:44;;;;;;;5.87;4.87;;;;;;;9.06;100.00;96827.31;5052213;27;102023;-60
2023/05/18 01:50:15;;;;;;;5.17;4.67;;;;;;;9.10;100.00;96826.63;5052494;27;105046;-60
2023/05/18 01:52:45;;;;;;;7.07;5.30;;;;;;;9.13;100.00;96825.34;5057416;27;105331;-60
2023/05/18 01:55:29;;;;;;;4.97;4.57;;;;;;;9.16;100.00;96824.91;5072519;27;101866;-60
2023/05/18 01:58:00;;;;;;;4.77;4.27;;;;;;;9.08;100.00;96823.41;5073652;27;102782;-60
2023/05/18 02:00:29;;;;;;;4.93;4.43;;;;;;;9.14;100.00;96827.78;5071978;27;105734;-60
2023/05/18 02:02:56;;;;;;;5.00;4.50;;;;;;;9.13;100.00;96820.88;5064261;27;101873;-60
2023/05/18 02:05:26;;;;;;;5.33;4.50;;;;;;;9.14;100.00;96822.47;5051690;27;105085;-60
2023/05/18 02:07:53;;;;;;;5.00;4.43;;;;;;;8.99;100.00;96823.97;5051711;27;101839;-60
2023/05/18 02:10:20;;;;;;;5.13;4.63;;;;;;;9.00;100.00;96820.28;5070007;27;104880;-60
2023/05/18 02:12:51;;;;;;;5.67;5.03;;;;;;;9.00;100.00;96825.59;5071300;27;104867;-60
2023/05/18 02:15:31;;;;;;;5.57;4.93;;;;;;;8.99;100.00;96818.69;5057217;27;103146;-60
2023/05/18 02:17:58;;;;;;;5.63;5.13;;;;;;;8.91;100.00;96826.94;5051785;27;105649;-60
2023/05/18 02:20:25;;;;;;;4.93;4.43;;;;;;;8.93;100.00;96817.72;5051050;27;105195;-60
2023/05/18 02:22:52;;;;;;;6.00;4.60;;;;;;;8.93;100.00;96820.38;5061581;27;102367;-60
2023/05/18 02:25:30;;;;;;;5.20;4.57;;;;;;;8.97;100.00;96815.44;5058520;27;102608;-60
2023/05/18 02:27:57;;;;;;;5.23;4.73;;;;;;;9.01;100.00;96814.75;5052714;27;101978;-60
2023/05/18 02:30:24;;;;;;;5.83;5.00;;;;;;;9.04;100.00;96803.66;5051371;27;105534;-60
2023/05/18 02:32:52;;;;;;;5.13;4.60;;;;;;;8.97;100.00;96800.34;5057110;27;105759;-60
2023/05/18 02:35:46;;;;;;;6.07;4.83;;;;;;;8.87;100.00;96801.91;5070140;27;102355;-60
2023/05/18 02:38:13;;;;;;;5.10;4.60;;;;;;;8.81;100.00;96806.31;5051384;27;104962;-60
2023/05/18 02:40:40;;;;;;;4.93;4.53;;;;;;;8.88;100.00;96807.00;5050845;27;104299;-60
2023/05/18 02:43:07;;;;;;;4.97;4.50;;;;;;;8.93;100.00;96808.97;5070345;27;102053;-60
2023/05/18 02:45:34;;;;;;;6.73;4.67;;;;;;;8.95;100.00;96810.34;5059372;27;105143;-60
2023/05/18 02:48:03;;;;;;;5.07;4.57;;;;;;;9.02;100.00;96804.94;5051396;27;101806;-60
2023/05/18 02:50:30;;;;;;;5.00;4.50;;;;;;;9.02;100.00;96805.75;5051096;27;104736;-60
2023/05/18 02:52:57;;;;;;;7.20;4.70;;;;;;;9.02;100.00;96811.06;5058348;27;102978;-60
2023/05/18 02:58:57;;;;;;;5.47;4.97;;;;;;;8.72;100.00;96802.38;5051013;27;103961;-60
2023/05/18 03:01:36;;;;;;;6.50;5.10;;;;;;;8.64;100.00;96813.31;5050419;27;105264;-61
2023/05/18 03:04:24;;;;;;;5.57;5.07;;;;;;;8.67;100.00;96814.72;5053633;27;101944;-60
2023/05/18 03:06:56;;;;;;;6.10;5.50;;;;;;;8.66;100.00;96807.75;5071141;27;105216;-60
2023/05/18 03:09:23;;;;;;;5.60;5.00;;;;;;;8.64;100.00;96815.97;5072614;27;105649;-60
2023/05/18 03:11:53;;;;;;;6.93;5.33;;;;;;;8.68;100.00;96803.06;5071036;27;104015;-60
2023/05/18 03:14:35;;;;;;;6.27;5.70;;;;;;;8.66;100.00;96802.47;5070248;27;105064;-60
2023/05/18 03:17:04;;;;;;;5.33;4.77;;;;;;;8.71;100.00;96802.59;5071274;27;101898;-60
2023/05/18 03:19:33;;;;;;;4.90;4.50;;;;;;;8.68;100.00;96800.41;5061221;27;104957;-60
2023/05/18 03:22:01;;;;;;;6.17;5.23;;;;;;;8.64;100.00;96792.13;5051251;27;105328;-60
2023/05/18 03:27:50;;;;;;;4.93;4.53;;;;;;;8.66;100.00;96803.28;5070976;27;104035;-61
2023/05/18 03:30:17;;;;;;;5.97;5.37;;;;;;;8.68;100.00;96803.84;5069365;27;104384;-60
2023/05/18 03:32:44;;;;;;;5.67;4.97;;;;;;;8.68;100.00;96803.06;5054230;27;101880;-60
2023/05/18 03:35:39;;;;;;;5.10;4.63;;;;;;;8.66;100.00;96813.06;5064759;27;105260;-60
2023/05/18 03:38:07;;;;;;;5.10;4.60;;;;;;;8.65;100.00;96820.22;5070670;27;101764;-60
2023/05/18 03:40:36;;;;;;;4.97;4.57;;;;;;;8.62;100.00;96811.94;5067887;27;104995;-61
2023/05/18 03:43:03;;;;;;;4.60;4.20;;;;;;;8.64;100.00;96817.81;5049569;27;105235;-60
2023/05/18 03:45:31;;;;;;;4.53;4.00;;;;;;;8.55;100.00;96819.97;5068199;27;101946;-60
2023/05/18 03:47:58;;;;;;;5.33;4.53;;;;;;;8.58;100.00;96816.88;5070865;27;105576;-60
2023/05/18 03:50:27;;;;;;;4.93;4.53;;;;;;;8.59;100.00;96822.97;5068288;27;105413;-60
2023/05/18 03:52:55;;;;;;;4.87;4.47;;;;;;;8.55;100.00;96817.31;5050121;27;102278;-60
2023/05/18 03:55:22;;;;;;;4.93;4.43;;;;;;;8.54;100.00;96814.88;5068912;27;105159;-60
2023/05/18 03:57:52;;;;;;;5.07;4.57;;;;;;;8.46;100.00;96816.03;5070491;27;101918;-60
2023/05/18 04:00:19;;;;;;;4.27;3.87;;;;;;;8.49;100.00;96817.41;5070194;27;104926;-60
2023/05/18 04:02:50;;;;;;;4.50;4.10;;;;;;;8.45;100.00;96824.22;5050266;27;103494;-60
2023/05/18 04:05:38;;;;;;;5.83;4.80;;;;;;;8.41;100.00;96810.59;5050089;27;101961;-60
2023/05/18 04:08:07;;;;;;;4.37;4.07;;;;;;;8.39;100.00;96811.88;5051419;27;102310;-60
2023/05/18 04:10:36;;;;;;;5.70;4.80;;;;;;;8.40;100.00;96810.84;5049392;27;105929;-60
2023/05/18 04:13:05;;;;;;;4.93;4.30;;;;;;;8.31;100.00;96814.84;5059251;27;102038;-60
2023/05/18 04:15:32;;;;;;;8.50;4.63;;;;;;;8.23;100.00;96812.50;5066422;27;104929;-60
2023/05/18 04:18:00;;;;;;;4.43;4.03;;;;;;;8.33;100.00;96813.56;5071376;27;102016;-60
2023/05/18 04:20:34;;;;;;;6.07;4.27;;;;;;;8.14;100.00;96806.69;5068426;27;105172;-60
2023/05/18 04:23:02;;;;;;;4.80;4.03;;;;;;;8.26;100.00;96825.28;5060451;27;105001;-60
2023/05/18 04:25:31;;;;;;;4.63;4.17;;;;;;;8.32;100.00;96821.75;5049585;27;102019;-60
2023/05/18 04:27:58;;;;;;;4.47;4.07;;;;;;;8.30;100.00;96823.81;5049160;27;105348;-60
2023/05/18 04:30:28;;;;;;;5.40;3.80;;;;;;;8.35;100.00;96829.25;5065700;27;105516;-61
2023/05/18 04:32:57;;;;;;;5.50;4.47;;;;;;;8.31;100.00;96825.44;5062843;27;101953;-60
2023/05/18 04:35:30;;;;;;;4.53;4.13;;;;;;;8.39;100.00;96822.47;5063563;27;104932;-60
2023/05/18 04:37:57;;;;;;;5.10;4.00;;;;;;;8.43;100.00;96832.38;5065428;27;105379;-60
2023/05/18 04:40:24;;;;;;;4.97;4.23;;;;;;;8.54;100.00;96817.53;5050925;27;101861;-61
2023/05/18 04:42:53;;;;;;;5.30;4.17;;;;;;;8.63;100.00;96824.13;5055162;27;105173;-60
2023/05/18 04:45:25;;;;;;;5.07;4.60;;;;;;;8.80;100.00;96815.31;5055235;27;101827;-60
2023/05/18 04:47:57;;;;;;;5.37;4.70;;;;;;;8.76;100.00;96808.84;5049400;27;105090;-60
2023/05/18 04:50:24;;;;;;;5.47;4.90;;;;;;;8.77;100.00;96818.41;5048821;27;105415;-60
2023/05/18 04:52:52;;;;;;;5.00;4.50;;;;;;;8.82;100.00;96812.41;5050348;27;101939;-60
2023/05/18 04:55:26;;;;;;;7.10;4.80;;;;;;;8.84;100.00;96818.31;5064414;27;105073;-60
2023/05/18 04:57:56;;;;;;;5.03;4.47;;;;;;;8.89;100.00;96811.25;5066392;27;105252;-60
2023/05/18 05:00:24;;;;;;;6.00;4.70;;;;;;;9.02;100.00;96812.91;5073256;27;101896;-60
2023/05/18 05:02:52;;;;;;;5.63;4.63;;;;;;;9.16;100.00;96816.94;5068642;27;105497;-60
2023/05/18 05:05:43;;;;;;;7.10;4.90;;;;;;;9.28;100.00;96812.44;5053034;27;102116;-60
2023/05/18 05:08:10;;;;;;;6.60;4.60;;;;;;;9.44;100.00;96806.44;5064198;27;104987;-62
2023/05/18 05:10:37;;;;;;;5.10;4.60;;;;;;;9.58;100.00;96813.09;5048357;27;105195;-61
2023/05/18 05:13:06;;;;;;;5.07;4.57;;;;;;;9.54;100.00;96807.44;5050133;27;102254;-62
2023/05/18 05:15:34;;;;;;;4.93;4.20;;;;;;;9.47;100.00;96812.06;5066439;27;102506;-60
2023/05/18 05:18:01;;;;;;;6.07;4.90;;;;;;;9.49;100.00;96809.19;5067154;27;105506;-60
2023/05/18 05:20:28;;;;;;;5.90;4.27;;;;;;;9.54;100.00;96806.66;5069439;27;102180;-60
2023/05/18 05:22:55;;;;;;;5.47;4.57;;;;;;;9.56;100.00;96809.88;5068138;27;105343;-60
2023/05/18 05:25:26;;;;;;;4.63;3.97;;;;;;;9.49;100.00;96814.50;5068387;27;103333;-60
2023/05/18 05:27:53;;;;;;;4.93;4.03;;;;;;;9.47;100.00;96808.59;5064199;27;105258;-60
2023/05/18 05:30:23;;;;;;;7.90;4.23;;;;;;;9.60;100.00;96811.03;5048205;27;105742;-60
2023/05/18 05:32:50;;;;;;;4.67;4.20;;;;;;;9.76;100.00;96811.09;5048831;27;101897;-60
2023/05/18 05:35:18;;;;;;;4.77;3.83;;;;;;;9.96;100.00;96808.84;5062469;27;105333;-59
2023/05/18 05:37:46;;;;;;;5.33;4.40;;;;;;;9.91;100.00;96807.91;5060548;27;105117;-60
2023/05/18 05:40:14;;;;;;;8.00;4.50;;;;;;;9.97;100.00;96802.47;5048527;27;102017;-59
2023/05/18 05:42:49;;;;;;;5.40;4.17;;;;;;;10.03;100.00;96796.22;5049811;27;105431;-59
2023/05/18 05:45:17;;;;;;;5.43;3.90;;;;;;;10.09;100.00;96791.84;5064729;27;105789;-60
2023/05/18 05:47:49;;;;;;;5.20;3.83;;;;;;;10.16;100.00;96795.16;5064850;27;105639;-60
2023/05/18 05:50:19;;;;;;;5.07;4.30;;;;;;;10.42;100.00;96794.59;5048226;27;105428;-60
2023/05/18 05:52:47;;;;;;;5.73;4.00;;;;;;;10.45;100.00;96796.75;5056129;27;101999;-60
2023/05/18 05:55:18;;;;;;;6.03;3.97;;;;;;;10.51;100.00;96793.97;5069042;27;104931;-60
2023/05/18 05:57:46;;;;;;;7.27;4.10;;;;;;;10.63;100.00;96792.03;5062246;27;105584;-60
2023/05/18 06:00:14;;;;;;;5.83;4.10;;;;;;;10.62;100.00;96794.91;5051904;27;101778;-60
2023/05/18 06:02:59;;;;;;;4.67;4.10;;;;;;;10.90;100.00;96795.66;5052042;27;105180;-60
2023/05/18 06:05:32;;;;;;;4.20;3.77;;;;;;;11.11;100.00;96796.78;5051234;27;105842;-60
2023/05/18 06:08:00;;;;;;;6.47;4.43;;;;;;;11.16;100.00;96792.34;5064776;27;102204;-60
2023/05/18 06:10:29;;;;;;;7.00;3.80;;;;;;;11.22;100.00;96795.88;5071678;27;105473;-60
2023/05/18 06:12:57;;;;;;;7.40;3.80;;;;;;;11.12;100.00;96793.88;5059484;27;101973;-59
2023/05/18 06:15:32;;;;;;;5.93;3.70;;;;;;;11.23;100.00;96797.53;5060307;27;104119;-60
2023/05/18 06:18:00;;;;;;;9.63;5.13;;;;;;;11.46;100.00;96798.09;5070978;27;105854;-59
2023/05/18 06:20:27;;;;;;;6.43;4.17;;;;;;;11.71;100.00;96801.13;5072131;27;101903;-59
2023/05/18 06:22:55;;;;;;;9.13;4.70;;;;;;;11.88;100.00;96793.88;5071906;27;102991;-59
2023/05/18 06:25:27;;;;;;;5.70;4.10;;;;;;;11.81;100.00;96801.28;5071344;27;105539;-59
2023/05/18 06:28:20;;;;;;;5.00;3.10;;;;;;;11.62;100.00;96807.16;5072880;27;101855;-60
2023/05/18 06:30:51;;;;;;;6.80;3.83;;;;;;;11.45;100.00;96801.03;5071127;27;105334;-60
2023/05/18 06:33:31;;;;;;;5.90;3.37;;;;;;;11.38;100.00;96795.06;5071213;27;101903;-60
2023/05/18 06:35:59;;;;;;;7.03;3.40;;;;;;;11.31;100.00;96799.75;5071869;27;105416;-60
2023/05/18 06:38:26;;;;;;;6.20;3.67;;;;;;;11.18;100.00;96792.91;5071044;27;105559;-63
2023/05/18 06:40:53;;;;;;;7.00;4.60;;;;;;;11.29;100.00;96785.88;5071376;27;101898;-63
2023/05/18 06:43:20;;;;;;;5.80;3.57;;;;;;;11.41;100.00;96794.56;5070981;27;105233;-63
2023/05/18 06:45:52;;;;;;;4.93;3.37;;;;;;;11.82;100.00;96786.09;5069918;27;105490;-60
2023/05/18 06:48:30;;;;;;;6.83;3.40;;;;;;;12.13;100.00;96788.03;5059692;27;101863;-60
2023/05/18 06:50:57;;;;;;;7.80;3.80;;;;;;;12.33;100.00;96778.38;5061214;27;105146;-60
2023/05/18 06:53:53;;;;;;;10.37;4.23;;;;;;;12.73;100.00;96778.78;5070470;27;101904;-60
2023/05/18 06:56:21;;;;;;;8.97;4.60;;;;;;;12.80;100.00;96783.91;5071396;27;104979;-60
2023/05/18 06:58:48;;;;;;;8.57;3.73;;;;;;;12.80;100.00;96790.03;5067894;27;105525;-61
2023/05/18 07:01:16;;;;;;;7.90;3.60;;;;;;;12.96;100.00;96777.66;5057118;27;102089;-61
2023/05/18 07:03:46;;;;;;;6.97;3.33;;;;;;;12.98;100.00;96783.56;5050300;27;104948;-61
2023/05/18 07:06:13;;;;;;;5.83;3.87;;;;;;;13.05;100.00;96786.81;5049291;27;105371;-61
2023/05/18 07:08:40;;;;;;;8.30;3.80;;;;;;;13.20;100.00;96790.38;5063947;27;101847;-61
2023/05/18 07:11:08;;;;;;;6.63;3.87;;;;;;;13.26;100.00;96783.22;5070421;27;103661;-61
2023/05/18 07:13:35;;;;;;;5.97;3.60;;;;;;;13.28;100.00;96786.44;5072936;27;105667;-61
2023/05/18 07:16:02;;;;;;;7.60;3.50;;;;;;;13.34;100.00;96780.88;5065849;27;105224;-61
2023/05/18 07:18:29;;;;;;;5.87;3.50;;;;;;;13.25;100.00;96787.75;5067100;27;105167;-60
2023/05/18 07:20:57;;;;;;;6.33;4.07;;;;;;;13.48;100.00;96797.25;5051477;27;102548;-61
2023/05/18 07:23:24;;;;;;;8.73;3.83;;;;;;;13.37;100.00;96795.56;5052159;27;102878;-61
2023/05/18 07:25:51;;;;;;;7.33;3.23;;;;;;;13.63;100.00;96794.66;5051700;27;105818;-60
2023/05/18 07:28:18;;;;;;;5.97;3.77;;;;;;;13.95;100.00;96795.38;5066991;27;101932;-59
2023/05/18 07:30:45;;;;;;;7.10;3.43;;;;;;;14.03;100.00;96793.00;5067243;27;102637;-59
2023/05/18 07:33:12;;;;;;;8.67;3.63;;;;;;;13.97;100.00;96793.22;5066902;27;105424;-59
2023/05/18 07:35:39;;;;;;;12.00;3.20;;;;;;;13.84;100.00;96791.81;5070117;27;102160;-59
2023/05/18 07:38:07;;;;;;;8.67;3.57;;;;;;;13.99;100.00;96788.41;5055808;27;104316;-59
2023/05/18 07:40:34;;;;;;;5.47;3.30;;;;;;;13.87;100.00;96793.19;5050835;27;101945;-59
2023/05/18 07:43:01;;;;;;;5.30;2.77;;;;;;;14.04;100.00;96791.09;5069883;27;105134;-59
2023/05/18 07:45:28;;;;;;;6.47;3.40;;;;;;;14.25;100.00;96796.31;5070457;27;102915;-59
2023/05/18 07:47:56;;;;;;;6.07;3.20;;;;;;;14.43;100.00;96789.63;5069564;27;101971;-59
2023/05/18 07:50:23;;;;;;;7.00;3.63;;;;;;;14.52;100.00;96796.91;5069502;27;103636;-59
2023/05/18 07:52:50;;;;;;;7.33;3.43;;;;;;;14.32;100.00;96798.72;5069216;27;105175;-59
2023/05/18 07:55:18;;;;;;;6.80;3.67;;;;;;;14.29;100.00;96804.59;5069688;27;102007;-59
2023/05/18 07:57:45;;;;;;;4.87;3.13;;;;;;;14.33;100.00;96800.34;5072583;27;105558;-59
2023/05/18 08:00:13;;;;;;;5.50;3.40;;;;;;;14.47;100.00;96802.25;5069394;27;102268;-59
2023/05/18 08:02:43;;;;;;;7.13;3.33;;;;;;;14.55;100.00;96806.28;5071055;27;102462;-59
2023/05/18 08:05:11;;;;;;;5.97;3.53;;;;;;;14.64;100.00;96802.81;5068701;27;105588;-59
2023/05/18 08:07:38;;;;;;;5.40;4.00;;;;;;;14.52;100.00;96804.94;5069640;27;102070;-59
2023/05/18 08:10:05;;;;;;;5.37;4.00;;;;;;;14.87;100.00;96801.50;5069451;27;105159;-59
2023/05/18 08:12:34;;;;;;;10.10;4.07;;;;;;;15.00;100.00;96800.97;5068702;27;105317;-59
2023/05/18 08:15:00;;;;;;;6.80;3.43;;;;;;;15.01;100.00;96798.03;5069146;27;101940;-59
2023/05/18 08:17:27;;;;;;;6.83;3.60;;;;;;;14.89;100.00;96807.38;5069458;27;104824;-59
2023/05/18 08:19:55;;;;;;;7.43;4.00;;;;;;;14.98;100.00;96795.88;5073249;27;102646;-59
2023/05/18 08:22:22;;;;;;;6.60;3.50;;;;;;;14.80;100.00;96792.91;5069497;27;104765;-59
2023/05/18 08:24:49;;;;;;;5.30;3.00;;;;;;;15.22;100.00;96804.19;5068646;27;105245;-59
2023/05/18 08:27:17;;;;;;;7.63;3.60;;;;;;;15.38;100.00;96797.75;5069248;27;102031;-59
2023/05/18 08:29:45;;;;;;;6.17;3.57;;;;;;;15.12;100.00;96798.81;5070723;27;102541;-59
2023/05/18 08:32:12;;;;;;;5.53;3.30;;;;;;;15.23;100.00;96805.78;5068501;27;105888;-59
2023/05/18 08:34:39;;;;;;;5.20;3.30;;;;;;;15.27;100.00;96802.28;5070465;27;102354;-59
2023/05/18 08:37:06;;;;;;;5.17;3.20;;;;;;;15.47;100.00;96801.50;5069242;27;105101;-59
2023/05/18 08:39:33;;;;;;;6.77;3.00;;;;;;;15.47;100.00;96796.94;5072064;27;106074;-59
2023/05/18 08:42:02;;;;;;;7.27;2.70;;;;;;;15.40;100.00;96804.47;5068688;27;105429;-59
2023/05/18 08:44:34;;;;;;;5.13;3.07;;;;;;;15.65;100.00;96804.38;5070019;27;103442;-59
2023/05/18 08:47:08;;;;;;;6.63;3.10;;;;;;;15.42;100.00;96798.84;5070560;27;101778;-59
2023/05/18 08:49:35;;;;;;;4.37;2.60;;;;;;;15.38;100.00;96803.91;5070559;27;103225;-59
2023/05/18 08:52:04;;;;;;;3.90;2.50;;;;;;;15.44;100.00;96808.22;5069862;27;102611;-59
2023/05/18 08:54:33;;;;;;;8.77;2.93;;;;;;;15.79;100.00;96797.41;5070284;27;101874;-59
2023/05/18 08:57:01;;;;;;;4.67;2.57;;;;;;;15.99;100.00;96799.19;5069030;27;104918;-59
2023/05/18 08:59:33;;;;;;;3.43;2.40;;;;;;;16.12;100.00;96798.59;5068079;27;105766;-59
2023/05/18 09:02:00;;;;;;;4.27;2.70;;;;;;;15.89;100.00;96796.56;5073706;27;101772;-59
2023/05/18 09:04:29;;;;;;;5.30;2.97;;;;;;;15.68;100.00;96795.00;5068080;27;105048;-59
2023/05/18 09:06:58;;;;;;;5.93;2.70;;;;;;;15.62;100.00;96804.94;5070321;27;101861;-59
2023/05/18 09:09:26;;;;;;;8.50;2.90;;;;;;;15.72;100.00;96807.63;5068962;27;104981;-59
2023/05/18 09:11:55;;;;;;;3.53;2.40;;;;;;;16.18;95.37;96800.22;5069124;27;102617;-59
2023/05/18 09:14:24;;;;;;;7.27;2.50;;;;;;;16.51;94.88;96797.63;5069902;27;102479;-59
2023/05/18 09:16:52;;;;;;;4.17;2.53;;;;;;;16.87;94.87;96803.56;5069987;27;102366;-59
2023/05/18 09:19:19;;;;;;;7.23;2.90;;;;;;;16.76;88.38;96802.03;5069492;27;103032;-59
2023/05/18 09:21:48;;;;;;;5.00;2.77;;;;;;;16.84;85.82;96804.16;5068541;27;101841;-59
2023/05/18 09:24:15;;;;;;;3.73;2.20;;;;;;;16.93;82.46;96807.81;5072923;27;102872;-59
2023/05/18 09:26:42;;;;;;;3.87;2.60;;;;;;;17.11;81.28;96813.34;5069905;27;102235;-59
2023/05/18 09:29:17;;;;;;;3.93;2.57;;;;;;;16.69;83.54;96799.69;5068123;27;105151;-59
2023/05/18 09:31:45;;;;;;;3.57;2.30;;;;;;;16.75;78.82;96806.63;5069845;27;102816;-59
2023/05/18 09:34:12;;;;;;;4.37;2.47;;;;;;;16.74;75.42;96810.38;5072015;27;102417;-59
2023/05/18 09:36:41;;;;;;;4.20;2.27;;;;;;;16.94;76.12;96804.09;5072272;27;105420;-59
2023/05/18 09:39:10;;;;;;;5.60;2.47;;;;;;;17.05;74.92;96811.78;5072433;27;103155;-59
2023/05/18 09:41:39;;;;;;;7.60;3.00;;;;;;;17.29;72.77;96809.97;5073204;27;101787;-59
2023/05/18 09:44:08;;;;;;;6.30;2.57;;;;;;;17.18;72.71;96808.47;5073453;27;102261;-59
2023/05/18 09:46:36;;;;;;;5.23;2.47;;;;;;;17.40;78.28;96800.75;5076164;27;102966;-59
2023/05/18 09:49:04;;;;;;;3.57;2.30;;;;;;;17.74;76.49;96795.31;5073143;27;103148;-59
2023/05/18 09:51:34;;;;;;;4.03;2.40;;;;;;;17.69;79.22;96801.53;5072680;27;102975;-59
2023/05/18 09:54:03;;;;;;;4.13;2.30;;;;;;;17.64;67.24;96806.16;5073024;27;102146;-59
2023/05/18 09:56:35;;;;;;;4.97;2.40;;;;;;;17.87;66.65;96794.63;5073525;27;101921;-59
2023/05/18 09:59:09;;;;;;;3.93;2.13;;;;;;;17.99;64.88;96795.03;5071036;27;103760;-59
2023/05/18 10:01:37;;;;;;;4.00;2.13;;;;;;;17.99;59.51;96792.34;5071578;27;101913;-59
2023/05/18 10:04:05;;;;;;;5.30;2.53;;;;;;;18.22;60.25;96799.59;5072651;27;102334;-59
2023/05/18 10:06:32;;;;;;;3.93;2.40;;;;;;;18.27;60.47;96791.44;5070922;27;104503;-59
2023/05/18 10:09:02;;;;;;;3.80;2.33;;;;;;;18.39;63.25;96789.97;5076251;27;102304;-59
2023/05/18 10:11:33;;;;;;;5.63;2.30;;;;;;;18.27;66.19;96786.06;5072492;27;102563;-59
2023/05/18 10:14:00;;;;;;;4.53;2.17;;;;;;;18.11;66.31;96776.56;5072841;27;101722;-59
2023/05/18 10:16:27;;;;;;;4.30;2.50;;;;;;;18.35;61.02;96782.75;5073078;27;102332;-59
2023/05/18 10:18:55;;;;;;;6.57;2.40;;;;;;;18.25;64.90;96785.56;5070433;27;105310;-59
2023/05/18 10:21:28;;;;;;;4.20;2.63;;;;;;;18.02;67.75;96783.69;5072358;27;101854;-59
2023/05/18 10:23:55;;;;;;;6.23;2.40;;;;;;;17.92;69.12;96787.28;5070461;27;105524;-59
2023/05/18 10:26:27;;;;;;;5.07;2.20;;;;;;;18.41;75.26;96774.31;5070135;27;103690;-59
2023/05/18 10:28:59;;;;;;;5.40;2.40;;;;;;;18.11;71.80;96784.66;5071228;27;102068;-59
2023/05/18 10:31:30;;;;;;;3.63;2.10;;;;;;;17.89;66.82;96781.69;5075071;27;102539;-59
2023/05/18 10:33:59;;;;;;;1.90;1.60;;;;;;;18.70;61.53;96780.34;5072039;27;101992;-59
2023/05/18 10:36:28;;;;;;;4.20;2.30;;;;;;;18.41;64.61;96781.59;5070435;27;103857;-59
2023/05/18 10:38:59;;;;;;;4.77;2.50;;;;;;;18.05;76.42;96786.59;5071009;27;102675;-59
2023/05/18 10:41:27;;;;;;;7.07;2.50;;;;;;;18.19;77.96;96786.69;5070082;27;101913;-59
2023/05/18 10:44:02;;;;;;;3.63;2.30;;;;;;;17.97;77.18;96789.13;5068776;27;103607;-59
2023/05/18 10:46:29;;;;;;;2.50;1.67;;;;;;;17.73;67.86;96782.94;5069518;27;105790;-59
2023/05/18 10:48:58;;;;;;;4.43;2.10;;;;;;;17.46;70.66;96788.06;5070092;27;101850;-59
2023/05/18 10:51:29;;;;;;;3.70;2.00;;;;;;;17.56;73.16;96793.34;5073177;27;105267;-59
2023/05/18 10:54:09;;;;;;;4.00;2.00;;;;;;;17.23;77.06;96786.09;5053712;27;101857;-59
2023/05/18 10:56:36;;;;;;;3.87;2.03;;;;;;;17.22;73.56;96776.44;5069998;27;103943;-59
2023/05/18 10:59:06;;;;;;;3.57;1.90;;;;;;;17.49;83.41;96787.50;5069194;27;105803;-59
2023/05/18 11:01:34;;;;;;;4.60;2.03;;;;;;;18.23;78.12;96787.72;5069548;27;101792;-59
2023/05/18 11:04:02;;;;;;;3.57;2.10;;;;;;;17.61;74.27;96785.22;5070091;27;103721;-59
2023/05/18 11:06:29;;;;;;;2.83;1.90;;;;;;;17.65;78.95;96781.69;5069260;27;105707;-59
2023/05/18 11:08:55;;;;;;;3.33;2.03;;;;;;;17.84;81.68;96784.44;5069943;27;101922;-59
2023/05/18 11:11:25;;;;;;;4.27;2.50;;;;;;;17.94;87.61;96774.34;5069418;27;105256;-59
2023/05/18 11:13:52;;;;;;;5.30;2.73;;;;;;;17.41;96.70;96785.41;5072574;27;103866;-59
2023/05/18 11:16:20;;;;;;;3.70;2.30;;;;;;;17.07;97.13;96782.72;5069871;27;105242;-59
2023/05/18 11:18:49;;;;;;;5.63;2.33;;;;;;;17.10;93.58;96781.34;5069142;27;105630;-59
2023/05/18 11:21:31;;;;;;;5.07;2.50;;;;;;;17.66;100.00;96777.88;5069691;27;101841;-59
2023/05/18 11:24:19;;;;;;;3.30;2.70;;;;;;;17.56;100.00;96779.91;5069256;27;105235;-59
2023/05/18 11:26:48;;;;;;;3.43;2.37;;;;;;;17.50;90.93;96781.03;5058925;27;102636;-59
2023/05/18 11:29:19;;;;;;;4.87;2.63;;;;;;;17.04;91.50;96785.16;5068867;27;101941;-59
2023/05/18 11:31:50;;;;;;;4.83;2.30;;;;;;;16.75;100.00;96782.47;5069525;27;104875;-59
2023/05/18 11:34:51;;;;;;;3.77;2.60;;;;;;;16.88;100.00;96781.00;5068861;27;105759;-59
2023/05/18 11:37:48;;;;;;;2.43;1.97;;;;;;;17.03;98.67;96780.88;5072540;27;101805;-59
2023/05/18 11:40:46;;;;;;;6.13;3.30;;;;;;;16.46;100.00;96783.44;5068896;27;105489;-59
2023/05/18 11:43:20;;;;;;;3.50;2.40;;;;;;;16.61;100.00;96780.66;5069115;27;101855;-59
2023/05/18 11:45:54;;;;;;;4.20;2.80;;;;;;;16.88;100.00;96786.38;5069227;27;104826;-59